sensor_id;sensor_type;location;lat;lon;timestamp;pressure;altitude;pressure_sealevel;temperature
74485;BMP280;62942;52.462;10.846;2024-03-08T00:01:07;101480;;;
74485;BMP280;62942;52.462;10.846;2024-03-08T00:02:17;101480;;;
74485;BMP280;62942;52.462;10.846;2024-03-08T00:03:27;101470;;;
74485;BMP280;62942;52.462;10.846;2024-03-08T00:04:37;101480;;;
74485;BMP280;62942;52.462;10.846;2024-03-08T00:05:46;101470;;;
74485;BMP280;62942;52.462;10.846;2024-03-08T00:06:57;101470;;;
74485;BMP280;62942;52.462;10.846;2024-03-08T00:07:57;101480;;;
74485;BMP280;62942;52.462;10.846;2024-03-08T00:08:57;101480;;;
74485;BMP280;62942;52.462;10.846;2024-03-08T00:10:07;101480;;;
74485;BMP280;62942;52.462;10.846;2024-03-08T00:11:16;101480;;;
74485;BMP280;62942;52.462;10.846;2024-03-08T00:12:17;101480;;;
74485;BMP280;62942;52.462;10.846;2024-03-08T00:13:26;101480;;;
74485;BMP280;62942;52.462;10.846;2024-03-08T00:14:37;101470;;;
74485;BMP280;62942;52.462;10.846;2024-03-08T00:15:37;101470;;;
74485;BMP280;62942;52.462;10.846;2024-03-08T00:16:47;101470;;;
74485;BMP280;62942;52.462;10.846;2024-03-08T00:17:56;101470;;;
74485;BMP280;62942;52.462;10.846;2024-03-08T00:18:56;101470;;;
74485;BMP280;62942;52.462;10.846;2024-03-08T00:20:07;101460;;;
74485;BMP280;62942;52.462;10.846;2024-03-08T00:21:17;101460;;;
74485;BMP280;62942;52.462;10.846;2024-03-08T00:22:26;101460;;;
74485;BMP280;62942;52.462;10.846;2024-03-08T00:23:36;101460;;;
74485;BMP280;62942;52.462;10.846;2024-03-08T00:24:46;101460;;;
74485;BMP280;62942;52.462;10.846;2024-03-08T00:25:46;101460;;;
74485;BMP280;62942;52.462;10.846;2024-03-08T00:26:56;101470;;;
74485;BMP280;62942;52.462;10.846;2024-03-08T00:28:06;101470;;;
74485;BMP280;62942;52.462;10.846;2024-03-08T00:29:17;101470;;;
74485;BMP280;62942;52.462;10.846;2024-03-08T00:30:27;101470;;;
74485;BMP280;62942;52.462;10.846;2024-03-08T00:31:36;101470;;;
74485;BMP280;62942;52.462;10.846;2024-03-08T00:32:47;101460;;;
74485;BMP280;62942;52.462;10.846;2024-03-08T00:33:57;101470;;;
74485;BMP280;62942;52.462;10.846;2024-03-08T00:34:57;101470;;;
74485;BMP280;62942;52.462;10.846;2024-03-08T00:36:07;101480;;;
74485;BMP280;62942;52.462;10.846;2024-03-08T00:37:17;101480;;;
74485;BMP280;62942;52.462;10.846;2024-03-08T00:38:27;101470;;;
74485;BMP280;62942;52.462;10.846;2024-03-08T00:39:37;101470;;;
74485;BMP280;62942;52.462;10.846;2024-03-08T00:40:47;101470;;;
74485;BMP280;62942;52.462;10.846;2024-03-08T00:41:47;101470;;;
74485;BMP280;62942;52.462;10.846;2024-03-08T00:42:57;101470;;;
74485;BMP280;62942;52.462;10.846;2024-03-08T00:44:06;101470;;;
74485;BMP280;62942;52.462;10.846;2024-03-08T00:45:17;101450;;;
74485;BMP280;62942;52.462;10.846;2024-03-08T00:46:26;101460;;;
74485;BMP280;62942;52.462;10.846;2024-03-08T00:47:26;101450;;;
74485;BMP280;62942;52.462;10.846;2024-03-08T00:48:26;101450;;;
74485;BMP280;62942;52.462;10.846;2024-03-08T00:49:37;101450;;;
74485;BMP280;62942;52.462;10.846;2024-03-08T00:50:47;101450;;;
74485;BMP280;62942;52.462;10.846;2024-03-08T00:51:56;101460;;;
74485;BMP280;62942;52.462;10.846;2024-03-08T00:53:06;101450;;;
74485;BMP280;62942;52.462;10.846;2024-03-08T00:54:16;101460;;;
74485;BMP280;62942;52.462;10.846;2024-03-08T00:55:16;101460;;;
74485;BMP280;62942;52.462;10.846;2024-03-08T00:56:27;101450;;;
74485;BMP280;62942;52.462;10.846;2024-03-08T00:57:26;101450;;;
74485;BMP280;62942;52.462;10.846;2024-03-08T00:58:26;101450;;;
74485;BMP280;62942;52.462;10.846;2024-03-08T00:59:37;101450;;;
74485;BMP280;62942;52.462;10.846;2024-03-08T01:00:46;101450;;;
74485;BMP280;62942;52.462;10.846;2024-03-08T01:01:46;101450;;;
74485;BMP280;62942;52.462;10.846;2024-03-08T01:02:46;101450;;;
74485;BMP280;62942;52.462;10.846;2024-03-08T01:03:56;101450;;;
74485;BMP280;62942;52.462;10.846;2024-03-08T01:04:56;101440;;;
74485;BMP280;62942;52.462;10.846;2024-03-08T01:06:07;101440;;;
74485;BMP280;62942;52.462;10.846;2024-03-08T01:07:16;101440;;;
74485;BMP280;62942;52.462;10.846;2024-03-08T01:08:26;101440;;;
74485;BMP280;62942;52.462;10.846;2024-03-08T01:09:36;101430;;;
74485;BMP280;62942;52.462;10.846;2024-03-08T01:10:36;101440;;;
74485;BMP280;62942;52.462;10.846;2024-03-08T01:11:46;101430;;;
74485;BMP280;62942;52.462;10.846;2024-03-08T01:12:56;101450;;;
74485;BMP280;62942;52.462;10.846;2024-03-08T01:14:06;101440;;;
74485;BMP280;62942;52.462;10.846;2024-03-08T01:15:07;101440;;;
74485;BMP280;62942;52.462;10.846;2024-03-08T01:16:16;101430;;;
74485;BMP280;62942;52.462;10.846;2024-03-08T01:17:26;101420;;;
74485;BMP280;62942;52.462;10.846;2024-03-08T01:18:26;101430;;;
74485;BMP280;62942;52.462;10.846;2024-03-08T01:19:36;101420;;;
74485;BMP280;62942;52.462;10.846;2024-03-08T01:20:46;101420;;;
74485;BMP280;62942;52.462;10.846;2024-03-08T01:21:56;101420;;;
74485;BMP280;62942;52.462;10.846;2024-03-08T01:22:56;101420;;;
74485;BMP280;62942;52.462;10.846;2024-03-08T01:24:07;101420;;;
74485;BMP280;62942;52.462;10.846;2024-03-08T01:25:07;101400;;;
74485;BMP280;62942;52.462;10.846;2024-03-08T01:26:16;101400;;;
74485;BMP280;62942;52.462;10.846;2024-03-08T01:27:26;101410;;;
74485;BMP280;62942;52.462;10.846;2024-03-08T01:28:36;101410;;;
74485;BMP280;62942;52.462;10.846;2024-03-08T01:29:36;101400;;;
74485;BMP280;62942;52.462;10.846;2024-03-08T01:30:46;101410;;;
74485;BMP280;62942;52.462;10.846;2024-03-08T01:31:56;101400;;;
74485;BMP280;62942;52.462;10.846;2024-03-08T01:33:06;101400;;;
74485;BMP280;62942;52.462;10.846;2024-03-08T01:34:06;101400;;;
74485;BMP280;62942;52.462;10.846;2024-03-08T01:35:16;101390;;;
74485;BMP280;62942;52.462;10.846;2024-03-08T01:36:26;101420;;;
74485;BMP280;62942;52.462;10.846;2024-03-08T01:37:26;101410;;;
74485;BMP280;62942;52.462;10.846;2024-03-08T01:38:26;101410;;;
74485;BMP280;62942;52.462;10.846;2024-03-08T01:39:36;101410;;;
74485;BMP280;62942;52.462;10.846;2024-03-08T01:40:37;101410;;;
74485;BMP280;62942;52.462;10.846;2024-03-08T01:41:46;101410;;;
74485;BMP280;62942;52.462;10.846;2024-03-08T01:42:46;101400;;;
74485;BMP280;62942;52.462;10.846;2024-03-08T01:43:56;101400;;;
74485;BMP280;62942;52.462;10.846;2024-03-08T01:44:56;101400;;;
74485;BMP280;62942;52.462;10.846;2024-03-08T01:46:06;101400;;;
74485;BMP280;62942;52.462;10.846;2024-03-08T01:47:16;101400;;;
74485;BMP280;62942;52.462;10.846;2024-03-08T01:48:26;101390;;;
74485;BMP280;62942;52.462;10.846;2024-03-08T01:49:37;101400;;;
74485;BMP280;62942;52.462;10.846;2024-03-08T01:50:46;101390;;;
74485;BMP280;62942;52.462;10.846;2024-03-08T01:51:56;101390;;;
74485;BMP280;62942;52.462;10.846;2024-03-08T01:53:07;101390;;;
74485;BMP280;62942;52.462;10.846;2024-03-08T01:54:17;101380;;;
74485;BMP280;62942;52.462;10.846;2024-03-08T01:55:26;101390;;;
74485;BMP280;62942;52.462;10.846;2024-03-08T01:56:37;101390;;;
74485;BMP280;62942;52.462;10.846;2024-03-08T01:57:46;101390;;;
74485;BMP280;62942;52.462;10.846;2024-03-08T01:58:56;101390;;;
74485;BMP280;62942;52.462;10.846;2024-03-08T01:59:56;101390;;;
74485;BMP280;62942;52.462;10.846;2024-03-08T02:01:06;101390;;;
74485;BMP280;62942;52.462;10.846;2024-03-08T02:02:06;101390;;;
74485;BMP280;62942;52.462;10.846;2024-03-08T02:03:16;101390;;;
74485;BMP280;62942;52.462;10.846;2024-03-08T02:04:26;101390;;;
74485;BMP280;62942;52.462;10.846;2024-03-08T02:05:36;101380;;;
74485;BMP280;62942;52.462;10.846;2024-03-08T02:06:46;101380;;;
74485;BMP280;62942;52.462;10.846;2024-03-08T02:07:56;101380;;;
74485;BMP280;62942;52.462;10.846;2024-03-08T02:09:06;101380;;;
74485;BMP280;62942;52.462;10.846;2024-03-08T02:10:07;101380;;;
74485;BMP280;62942;52.462;10.846;2024-03-08T02:11:06;101380;;;
74485;BMP280;62942;52.462;10.846;2024-03-08T02:12:16;101380;;;
74485;BMP280;62942;52.462;10.846;2024-03-08T02:13:16;101370;;;
74485;BMP280;62942;52.462;10.846;2024-03-08T02:14:26;101370;;;
74485;BMP280;62942;52.462;10.846;2024-03-08T02:15:26;101370;;;
74485;BMP280;62942;52.462;10.846;2024-03-08T02:16:36;101370;;;
74485;BMP280;62942;52.462;10.846;2024-03-08T02:17:46;101370;;;
74485;BMP280;62942;52.462;10.846;2024-03-08T02:18:56;101360;;;
74485;BMP280;62942;52.462;10.846;2024-03-08T02:19:56;101370;;;
74485;BMP280;62942;52.462;10.846;2024-03-08T02:21:07;101370;;;
74485;BMP280;62942;52.462;10.846;2024-03-08T02:22:16;101370;;;
74485;BMP280;62942;52.462;10.846;2024-03-08T02:23:26;101370;;;
74485;BMP280;62942;52.462;10.846;2024-03-08T02:24:26;101360;;;
74485;BMP280;62942;52.462;10.846;2024-03-08T02:25:36;101370;;;
74485;BMP280;62942;52.462;10.846;2024-03-08T02:26:46;101370;;;
74485;BMP280;62942;52.462;10.846;2024-03-08T02:27:56;101360;;;
74485;BMP280;62942;52.462;10.846;2024-03-08T02:29:06;101360;;;
74485;BMP280;62942;52.462;10.846;2024-03-08T02:30:16;101370;;;
74485;BMP280;62942;52.462;10.846;2024-03-08T02:31:26;101370;;;
74485;BMP280;62942;52.462;10.846;2024-03-08T02:32:36;101360;;;
74485;BMP280;62942;52.462;10.846;2024-03-08T02:33:46;101370;;;
74485;BMP280;62942;52.462;10.846;2024-03-08T02:34:56;101360;;;
74485;BMP280;62942;52.462;10.846;2024-03-08T02:36:06;101360;;;
74485;BMP280;62942;52.462;10.846;2024-03-08T02:37:16;101360;;;
74485;BMP280;62942;52.462;10.846;2024-03-08T02:38:17;101350;;;
74485;BMP280;62942;52.462;10.846;2024-03-08T02:39:26;101360;;;
74485;BMP280;62942;52.462;10.846;2024-03-08T02:40:36;101360;;;
74485;BMP280;62942;52.462;10.846;2024-03-08T02:41:46;101360;;;
74485;BMP280;62942;52.462;10.846;2024-03-08T02:42:56;101350;;;
74485;BMP280;62942;52.462;10.846;2024-03-08T02:44:06;101350;;;
74485;BMP280;62942;52.462;10.846;2024-03-08T02:45:06;101340;;;
74485;BMP280;62942;52.462;10.846;2024-03-08T02:46:06;101350;;;
74485;BMP280;62942;52.462;10.846;2024-03-08T02:47:16;101350;;;
74485;BMP280;62942;52.462;10.846;2024-03-08T02:48:26;101340;;;
74485;BMP280;62942;52.462;10.846;2024-03-08T02:49:36;101340;;;
74485;BMP280;62942;52.462;10.846;2024-03-08T02:50:36;101340;;;
74485;BMP280;62942;52.462;10.846;2024-03-08T02:51:46;101340;;;
74485;BMP280;62942;52.462;10.846;2024-03-08T02:52:56;101340;;;
74485;BMP280;62942;52.462;10.846;2024-03-08T02:54:06;101340;;;
74485;BMP280;62942;52.462;10.846;2024-03-08T02:55:16;101330;;;
74485;BMP280;62942;52.462;10.846;2024-03-08T02:56:26;101340;;;
74485;BMP280;62942;52.462;10.846;2024-03-08T02:57:36;101330;;;
74485;BMP280;62942;52.462;10.846;2024-03-08T02:58:36;101340;;;
74485;BMP280;62942;52.462;10.846;2024-03-08T02:59:36;101340;;;
74485;BMP280;62942;52.462;10.846;2024-03-08T03:00:36;101330;;;
74485;BMP280;62942;52.462;10.846;2024-03-08T03:01:46;101340;;;
74485;BMP280;62942;52.462;10.846;2024-03-08T03:02:56;101340;;;
74485;BMP280;62942;52.462;10.846;2024-03-08T03:04:06;101340;;;
74485;BMP280;62942;52.462;10.846;2024-03-08T03:05:16;101340;;;
74485;BMP280;62942;52.462;10.846;2024-03-08T03:06:16;101330;;;
74485;BMP280;62942;52.462;10.846;2024-03-08T03:07:26;101340;;;
74485;BMP280;62942;52.462;10.846;2024-03-08T03:08:36;101340;;;
74485;BMP280;62942;52.462;10.846;2024-03-08T03:09:46;101340;;;
74485;BMP280;62942;52.462;10.846;2024-03-08T03:10:56;101330;;;
74485;BMP280;62942;52.462;10.846;2024-03-08T03:12:06;101330;;;
74485;BMP280;62942;52.462;10.846;2024-03-08T03:13:16;101340;;;
74485;BMP280;62942;52.462;10.846;2024-03-08T03:14:16;101340;;;
74485;BMP280;62942;52.462;10.846;2024-03-08T03:15:16;101330;;;
74485;BMP280;62942;52.462;10.846;2024-03-08T03:16:26;101340;;;
74485;BMP280;62942;52.462;10.846;2024-03-08T03:17:36;101330;;;
74485;BMP280;62942;52.462;10.846;2024-03-08T03:18:46;101330;;;
74485;BMP280;62942;52.462;10.846;2024-03-08T03:19:56;101330;;;
74485;BMP280;62942;52.462;10.846;2024-03-08T03:21:06;101330;;;
74485;BMP280;62942;52.462;10.846;2024-03-08T03:22:16;101330;;;
74485;BMP280;62942;52.462;10.846;2024-03-08T03:23:26;101320;;;
74485;BMP280;62942;52.462;10.846;2024-03-08T03:24:36;101320;;;
74485;BMP280;62942;52.462;10.846;2024-03-08T03:25:46;101320;;;
74485;BMP280;62942;52.462;10.846;2024-03-08T03:26:46;101320;;;
74485;BMP280;62942;52.462;10.846;2024-03-08T03:27:56;101320;;;
74485;BMP280;62942;52.462;10.846;2024-03-08T03:28:56;101320;;;
74485;BMP280;62942;52.462;10.846;2024-03-08T03:30:06;101320;;;
74485;BMP280;62942;52.462;10.846;2024-03-08T03:31:06;101320;;;
74485;BMP280;62942;52.462;10.846;2024-03-08T03:32:16;101320;;;
74485;BMP280;62942;52.462;10.846;2024-03-08T03:33:26;101320;;;
74485;BMP280;62942;52.462;10.846;2024-03-08T03:34:26;101320;;;
74485;BMP280;62942;52.462;10.846;2024-03-08T03:35:36;101320;;;
74485;BMP280;62942;52.462;10.846;2024-03-08T03:36:36;101320;;;
74485;BMP280;62942;52.462;10.846;2024-03-08T03:37:46;101320;;;
74485;BMP280;62942;52.462;10.846;2024-03-08T03:38:46;101320;;;
74485;BMP280;62942;52.462;10.846;2024-03-08T03:39:56;101320;;;
74485;BMP280;62942;52.462;10.846;2024-03-08T03:41:06;101320;;;
74485;BMP280;62942;52.462;10.846;2024-03-08T03:42:06;101320;;;
74485;BMP280;62942;52.462;10.846;2024-03-08T03:43:16;101310;;;
74485;BMP280;62942;52.462;10.846;2024-03-08T03:44:16;101320;;;
74485;BMP280;62942;52.462;10.846;2024-03-08T03:45:26;101320;;;
74485;BMP280;62942;52.462;10.846;2024-03-08T03:46:36;101310;;;
74485;BMP280;62942;52.462;10.846;2024-03-08T03:47:46;101330;;;
74485;BMP280;62942;52.462;10.846;2024-03-08T03:48:56;101330;;;
74485;BMP280;62942;52.462;10.846;2024-03-08T03:49:56;101330;;;
74485;BMP280;62942;52.462;10.846;2024-03-08T03:51:06;101330;;;
74485;BMP280;62942;52.462;10.846;2024-03-08T03:52:16;101330;;;
74485;BMP280;62942;52.462;10.846;2024-03-08T03:53:26;101330;;;
74485;BMP280;62942;52.462;10.846;2024-03-08T03:54:26;101330;;;
74485;BMP280;62942;52.462;10.846;2024-03-08T03:55:36;101330;;;
74485;BMP280;62942;52.462;10.846;2024-03-08T03:56:46;101320;;;
74485;BMP280;62942;52.462;10.846;2024-03-08T03:57:56;101330;;;
74485;BMP280;62942;52.462;10.846;2024-03-08T03:59:06;101330;;;
74485;BMP280;62942;52.462;10.846;2024-03-08T04:00:16;101330;;;
74485;BMP280;62942;52.462;10.846;2024-03-08T04:01:26;101330;;;
74485;BMP280;62942;52.462;10.846;2024-03-08T04:02:36;101320;;;
74485;BMP280;62942;52.462;10.846;2024-03-08T04:03:36;101320;;;
74485;BMP280;62942;52.462;10.846;2024-03-08T04:04:46;101320;;;
74485;BMP280;62942;52.462;10.846;2024-03-08T04:05:56;101320;;;
74485;BMP280;62942;52.462;10.846;2024-03-08T04:06:56;101300;;;
74485;BMP280;62942;52.462;10.846;2024-03-08T04:08:06;101310;;;
74485;BMP280;62942;52.462;10.846;2024-03-08T04:09:16;101310;;;
74485;BMP280;62942;52.462;10.846;2024-03-08T04:10:26;101310;;;
74485;BMP280;62942;52.462;10.846;2024-03-08T04:11:36;101300;;;
74485;BMP280;62942;52.462;10.846;2024-03-08T04:12:36;101310;;;
74485;BMP280;62942;52.462;10.846;2024-03-08T04:13:46;101300;;;
74485;BMP280;62942;52.462;10.846;2024-03-08T04:14:56;101310;;;
74485;BMP280;62942;52.462;10.846;2024-03-08T04:16:06;101310;;;
74485;BMP280;62942;52.462;10.846;2024-03-08T04:17:06;101300;;;
74485;BMP280;62942;52.462;10.846;2024-03-08T04:18:16;101310;;;
74485;BMP280;62942;52.462;10.846;2024-03-08T04:19:26;101300;;;
74485;BMP280;62942;52.462;10.846;2024-03-08T04:20:36;101310;;;
74485;BMP280;62942;52.462;10.846;2024-03-08T04:21:46;101300;;;
74485;BMP280;62942;52.462;10.846;2024-03-08T04:22:46;101300;;;
74485;BMP280;62942;52.462;10.846;2024-03-08T04:23:56;101300;;;
74485;BMP280;62942;52.462;10.846;2024-03-08T04:25:06;101300;;;
74485;BMP280;62942;52.462;10.846;2024-03-08T04:26:16;101300;;;
74485;BMP280;62942;52.462;10.846;2024-03-08T04:27:16;101300;;;
74485;BMP280;62942;52.462;10.846;2024-03-08T04:28:26;101300;;;
74485;BMP280;62942;52.462;10.846;2024-03-08T04:29:36;101300;;;
74485;BMP280;62942;52.462;10.846;2024-03-08T04:30:46;101310;;;
74485;BMP280;62942;52.462;10.846;2024-03-08T04:31:46;101300;;;
74485;BMP280;62942;52.462;10.846;2024-03-08T04:32:46;101300;;;
74485;BMP280;62942;52.462;10.846;2024-03-08T04:33:56;101300;;;
74485;BMP280;62942;52.462;10.846;2024-03-08T04:34:56;101320;;;
74485;BMP280;62942;52.462;10.846;2024-03-08T04:35:56;101320;;;
74485;BMP280;62942;52.462;10.846;2024-03-08T04:37:06;101310;;;
74485;BMP280;62942;52.462;10.846;2024-03-08T04:38:06;101310;;;
74485;BMP280;62942;52.462;10.846;2024-03-08T04:39:16;101310;;;
74485;BMP280;62942;52.462;10.846;2024-03-08T04:40:16;101310;;;
74485;BMP280;62942;52.462;10.846;2024-03-08T04:41:16;101310;;;
74485;BMP280;62942;52.462;10.846;2024-03-08T04:42:26;101310;;;
74485;BMP280;62942;52.462;10.846;2024-03-08T04:43:36;101310;;;
74485;BMP280;62942;52.462;10.846;2024-03-08T04:44:46;101320;;;
74485;BMP280;62942;52.462;10.846;2024-03-08T04:45:56;101310;;;
74485;BMP280;62942;52.462;10.846;2024-03-08T04:46:56;101310;;;
74485;BMP280;62942;52.462;10.846;2024-03-08T04:48:06;101310;;;
74485;BMP280;62942;52.462;10.846;2024-03-08T04:49:16;101310;;;
74485;BMP280;62942;52.462;10.846;2024-03-08T04:50:16;101320;;;
74485;BMP280;62942;52.462;10.846;2024-03-08T04:51:26;101320;;;
74485;BMP280;62942;52.462;10.846;2024-03-08T04:52:26;101310;;;
74485;BMP280;62942;52.462;10.846;2024-03-08T04:53:36;101320;;;
74485;BMP280;62942;52.462;10.846;2024-03-08T04:54:46;101310;;;
74485;BMP280;62942;52.462;10.846;2024-03-08T04:55:56;101320;;;
74485;BMP280;62942;52.462;10.846;2024-03-08T04:56:56;101310;;;
74485;BMP280;62942;52.462;10.846;2024-03-08T04:58:06;101310;;;
74485;BMP280;62942;52.462;10.846;2024-03-08T04:59:16;101310;;;
74485;BMP280;62942;52.462;10.846;2024-03-08T05:00:16;101300;;;
74485;BMP280;62942;52.462;10.846;2024-03-08T05:01:16;101300;;;
74485;BMP280;62942;52.462;10.846;2024-03-08T05:02:26;101310;;;
74485;BMP280;62942;52.462;10.846;2024-03-08T05:03:36;101310;;;
74485;BMP280;62942;52.462;10.846;2024-03-08T05:04:36;101310;;;
74485;BMP280;62942;52.462;10.846;2024-03-08T05:05:46;101300;;;
74485;BMP280;62942;52.462;10.846;2024-03-08T05:06:46;101310;;;
74485;BMP280;62942;52.462;10.846;2024-03-08T05:07:56;101300;;;
74485;BMP280;62942;52.462;10.846;2024-03-08T05:08:56;101310;;;
74485;BMP280;62942;52.462;10.846;2024-03-08T05:09:56;101300;;;
74485;BMP280;62942;52.462;10.846;2024-03-08T05:11:06;101300;;;
74485;BMP280;62942;52.462;10.846;2024-03-08T05:12:06;101300;;;
74485;BMP280;62942;52.462;10.846;2024-03-08T05:13:16;101310;;;
74485;BMP280;62942;52.462;10.846;2024-03-08T05:14:26;101310;;;
74485;BMP280;62942;52.462;10.846;2024-03-08T05:15:36;101310;;;
74485;BMP280;62942;52.462;10.846;2024-03-08T05:16:36;101300;;;
74485;BMP280;62942;52.462;10.846;2024-03-08T05:17:46;101300;;;
74485;BMP280;62942;52.462;10.846;2024-03-08T05:18:56;101300;;;
74485;BMP280;62942;52.462;10.846;2024-03-08T05:19:56;101300;;;
74485;BMP280;62942;52.462;10.846;2024-03-08T05:21:06;101300;;;
74485;BMP280;62942;52.462;10.846;2024-03-08T05:22:06;101300;;;
74485;BMP280;62942;52.462;10.846;2024-03-08T05:23:16;101300;;;
74485;BMP280;62942;52.462;10.846;2024-03-08T05:24:27;101300;;;
74485;BMP280;62942;52.462;10.846;2024-03-08T05:25:36;101300;;;
74485;BMP280;62942;52.462;10.846;2024-03-08T05:26:46;101300;;;
74485;BMP280;62942;52.462;10.846;2024-03-08T05:27:56;101300;;;
74485;BMP280;62942;52.462;10.846;2024-03-08T05:29:06;101310;;;
74485;BMP280;62942;52.462;10.846;2024-03-08T05:30:16;101310;;;
74485;BMP280;62942;52.462;10.846;2024-03-08T05:31:26;101300;;;
74485;BMP280;62942;52.462;10.846;2024-03-08T05:32:36;101300;;;
74485;BMP280;62942;52.462;10.846;2024-03-08T05:33:46;101300;;;
74485;BMP280;62942;52.462;10.846;2024-03-08T05:34:46;101300;;;
74485;BMP280;62942;52.462;10.846;2024-03-08T05:35:46;101300;;;
74485;BMP280;62942;52.462;10.846;2024-03-08T05:36:56;101300;;;
74485;BMP280;62942;52.462;10.846;2024-03-08T05:38:06;101300;;;
74485;BMP280;62942;52.462;10.846;2024-03-08T05:39:16;101300;;;
74485;BMP280;62942;52.462;10.846;2024-03-08T05:40:26;101300;;;
74485;BMP280;62942;52.462;10.846;2024-03-08T05:41:26;101300;;;
74485;BMP280;62942;52.462;10.846;2024-03-08T05:42:36;101300;;;
74485;BMP280;62942;52.462;10.846;2024-03-08T05:43:36;101300;;;
74485;BMP280;62942;52.462;10.846;2024-03-08T05:44:36;101300;;;
74485;BMP280;62942;52.462;10.846;2024-03-08T05:45:46;101300;;;
74485;BMP280;62942;52.462;10.846;2024-03-08T05:46:46;101290;;;
74485;BMP280;62942;52.462;10.846;2024-03-08T05:47:56;101300;;;
74485;BMP280;62942;52.462;10.846;2024-03-08T05:49:06;101300;;;
74485;BMP280;62942;52.462;10.846;2024-03-08T05:50:16;101290;;;
74485;BMP280;62942;52.462;10.846;2024-03-08T05:51:26;101300;;;
74485;BMP280;62942;52.462;10.846;2024-03-08T05:52:36;101300;;;
74485;BMP280;62942;52.462;10.846;2024-03-08T05:53:46;101290;;;
74485;BMP280;62942;52.462;10.846;2024-03-08T05:54:56;101290;;;
74485;BMP280;62942;52.462;10.846;2024-03-08T05:55:56;101300;;;
74485;BMP280;62942;52.462;10.846;2024-03-08T05:57:06;101300;;;
74485;BMP280;62942;52.462;10.846;2024-03-08T05:58:16;101300;;;
74485;BMP280;62942;52.462;10.846;2024-03-08T05:59:26;101300;;;
74485;BMP280;62942;52.462;10.846;2024-03-08T06:00:36;101290;;;
74485;BMP280;62942;52.462;10.846;2024-03-08T06:01:46;101290;;;
74485;BMP280;62942;52.462;10.846;2024-03-08T06:02:46;101300;;;
74485;BMP280;62942;52.462;10.846;2024-03-08T06:03:56;101300;;;
74485;BMP280;62942;52.462;10.846;2024-03-08T06:05:07;101300;;;
74485;BMP280;62942;52.462;10.846;2024-03-08T06:06:06;101300;;;
74485;BMP280;62942;52.462;10.846;2024-03-08T06:07:16;101300;;;
74485;BMP280;62942;52.462;10.846;2024-03-08T06:08:30;101300;;;
74485;BMP280;62942;52.462;10.846;2024-03-08T06:09:36;101290;;;
74485;BMP280;62942;52.462;10.846;2024-03-08T06:10:36;101300;;;
74485;BMP280;62942;52.462;10.846;2024-03-08T06:11:46;101300;;;
74485;BMP280;62942;52.462;10.846;2024-03-08T06:12:46;101300;;;
74485;BMP280;62942;52.462;10.846;2024-03-08T06:13:56;101290;;;
74485;BMP280;62942;52.462;10.846;2024-03-08T06:15:06;101290;;;
74485;BMP280;62942;52.462;10.846;2024-03-08T06:16:16;101280;;;
74485;BMP280;62942;52.462;10.846;2024-03-08T06:17:26;101280;;;
74485;BMP280;62942;52.462;10.846;2024-03-08T06:18:26;101290;;;
74485;BMP280;62942;52.462;10.846;2024-03-08T06:19:26;101290;;;
74485;BMP280;62942;52.462;10.846;2024-03-08T06:20:36;101290;;;
74485;BMP280;62942;52.462;10.846;2024-03-08T06:21:46;101290;;;
74485;BMP280;62942;52.462;10.846;2024-03-08T06:22:46;101290;;;
74485;BMP280;62942;52.462;10.846;2024-03-08T06:23:56;101290;;;
74485;BMP280;62942;52.462;10.846;2024-03-08T06:25:06;101290;;;
74485;BMP280;62942;52.462;10.846;2024-03-08T06:26:16;101290;;;
74485;BMP280;62942;52.462;10.846;2024-03-08T06:27:26;101290;;;
74485;BMP280;62942;52.462;10.846;2024-03-08T06:28:36;101290;;;
74485;BMP280;62942;52.462;10.846;2024-03-08T06:29:36;101290;;;
74485;BMP280;62942;52.462;10.846;2024-03-08T06:30:36;101290;;;
74485;BMP280;62942;52.462;10.846;2024-03-08T06:31:46;101290;;;
74485;BMP280;62942;52.462;10.846;2024-03-08T06:32:56;101290;;;
74485;BMP280;62942;52.462;10.846;2024-03-08T06:33:56;101290;;;
74485;BMP280;62942;52.462;10.846;2024-03-08T06:34:56;101290;;;
74485;BMP280;62942;52.462;10.846;2024-03-08T06:35:56;101290;;;
74485;BMP280;62942;52.462;10.846;2024-03-08T06:36:56;101290;;;
74485;BMP280;62942;52.462;10.846;2024-03-08T06:38:06;101280;;;
74485;BMP280;62942;52.462;10.846;2024-03-08T06:39:16;101280;;;
74485;BMP280;62942;52.462;10.846;2024-03-08T06:40:26;101300;;;
74485;BMP280;62942;52.462;10.846;2024-03-08T06:41:36;101300;;;
74485;BMP280;62942;52.462;10.846;2024-03-08T06:42:36;101300;;;
74485;BMP280;62942;52.462;10.846;2024-03-08T06:43:46;101300;;;
74485;BMP280;62942;52.462;10.846;2024-03-08T06:44:56;101290;;;
74485;BMP280;62942;52.462;10.846;2024-03-08T06:46:06;101300;;;
74485;BMP280;62942;52.462;10.846;2024-03-08T06:47:06;101290;;;
74485;BMP280;62942;52.462;10.846;2024-03-08T06:48:16;101300;;;
74485;BMP280;62942;52.462;10.846;2024-03-08T06:49:16;101290;;;
74485;BMP280;62942;52.462;10.846;2024-03-08T06:50:26;101300;;;
74485;BMP280;62942;52.462;10.846;2024-03-08T06:51:36;101290;;;
74485;BMP280;62942;52.462;10.846;2024-03-08T06:52:36;101300;;;
74485;BMP280;62942;52.462;10.846;2024-03-08T06:53:36;101290;;;
74485;BMP280;62942;52.462;10.846;2024-03-08T06:54:46;101300;;;
74485;BMP280;62942;52.462;10.846;2024-03-08T06:55:56;101290;;;
74485;BMP280;62942;52.462;10.846;2024-03-08T06:57:06;101280;;;
74485;BMP280;62942;52.462;10.846;2024-03-08T06:58:16;101290;;;
74485;BMP280;62942;52.462;10.846;2024-03-08T06:59:26;101290;;;
74485;BMP280;62942;52.462;10.846;2024-03-08T07:00:36;101290;;;
74485;BMP280;62942;52.462;10.846;2024-03-08T07:01:46;101300;;;
74485;BMP280;62942;52.462;10.846;2024-03-08T07:02:56;101300;;;
74485;BMP280;62942;52.462;10.846;2024-03-08T07:03:56;101290;;;